Back to Top

Language: 

My Weather Underground Personal Weather Station Historical Data with Graphs...

Delerius Weather Station Historical Data
Daily Summary for March 3, 2017 Units:  Metric    English   Both
« Previous Day
Next Day »
Daily Weekly Monthly Yearly Custom
  High: Low: Average:
Temperature: 7.3 °C 4.6 °C 5.6 °C
Dew Point: 7.1 °C 2.9 °C 4.6 °C
Humidity: 98 % 81 % 93 %
Wind Speed: 17.7 km/h 0 km/h 6 km/h
Wind Gust: 32.2 km/h - -
Wind:- - ESE
Pressure: 1005.6 hPa 988.4 hPa -
Precipitation: 7.62 mm    
Historical Graphs
 
 
Tabular Data for March 3, 2017
Time Temperature Dew Point Pressure Wind Wind Speed Wind Gust Humidity Rainfall Rate (Hourly) solar Conditions
00:05 5.9 °C 2.9 °C 1005.6 hPa South 14.5 km/h 25.7 km/h 81 % 0 mm 0 W/m2
00:15 6 °C 3.2 °C 1005.6 hPa SW 16.1 km/h 24.1 km/h 82 % 0 mm 0 W/m2
00:20 6 °C 3.2 °C 1005.3 hPa SW 17.7 km/h 17.7 km/h 82 % 0 mm 0 W/m2
00:25 6 °C 3.2 °C 1005.3 hPa SW 16.1 km/h 17.7 km/h 82 % 0 mm 0 W/m2
00:30 6 °C 3.3 °C 1005.3 hPa South 14.5 km/h 19.3 km/h 83 % 0 mm 0 W/m2
00:35 6 °C 3.3 °C 1005.3 hPa SW 14.5 km/h 19.3 km/h 83 % 0 mm 0 W/m2
00:40 6 °C 3.3 °C 1005.3 hPa SSW 14.5 km/h 14.5 km/h 83 % 0 mm 0 W/m2
00:50 6.1 °C 3.6 °C 1005 hPa South 12.9 km/h 12.9 km/h 84 % 0 mm 0 W/m2
00:55 6.1 °C 3.6 °C 1005 hPa SSW 12.9 km/h 12.9 km/h 84 % 0 mm 0 W/m2
01:00 6.1 °C 3.6 °C 1005 hPa SW 12.9 km/h 12.9 km/h 84 % 0 mm 0 W/m2
01:05 6.1 °C 3.6 °C 1005 hPa SW 11.3 km/h 32.2 km/h 84 % 0 mm 0 W/m2
01:10 6.1 °C 3.6 °C 1005 hPa SSE 11.3 km/h 11.3 km/h 84 % 0 mm 0 W/m2
01:20 6.1 °C 3.7 °C 1004.6 hPa ESE 11.3 km/h 11.3 km/h 85 % 0 mm 0 W/m2
01:30 5.6 °C 3.1 °C 1005 hPa East 8 km/h 32.2 km/h 84 % 0 mm 0 W/m2
01:35 5.3 °C 2.9 °C 1004.6 hPa East 6.4 km/h 32.2 km/h 85 % 0 mm 0 W/m2
01:40 5.1 °C 2.9 °C 1004.6 hPa ESE 6.4 km/h 32.2 km/h 86 % 0 mm 0 W/m2
01:45 5.1 °C 3.1 °C 1004.6 hPa East 6.4 km/h 32.2 km/h 87 % 0 mm 0 W/m2
01:50 5 °C 3 °C 1004.6 hPa East 6.4 km/h 6.4 km/h 87 % 0 mm 0 W/m2
01:55 5 °C 3.2 °C 1004.6 hPa ESE 8 km/h 12.9 km/h 88 % 0 mm 0 W/m2
02:00 5.1 °C 3.3 °C 1004.3 hPa ESE 9.7 km/h 9.7 km/h 88 % 0 mm 0 W/m2
02:05 5.2 °C 3.4 °C 1004.3 hPa ESE 8 km/h 32.2 km/h 88 % 0 mm 0 W/m2
02:10 5.3 °C 3.7 °C 1004.3 hPa East 8 km/h 32.2 km/h 89 % 0 mm 0 W/m2
02:15 5.4 °C 3.8 °C 1004.3 hPa SE 9.7 km/h 32.2 km/h 89 % 0 mm 0 W/m2
02:20 5.5 °C 3.7 °C 1004.3 hPa ESE 8 km/h 8 km/h 88 % 0 mm 0 W/m2
02:30 5.6 °C 3.8 °C 1004.3 hPa East 8 km/h 32.2 km/h 88 % 0 mm 0 W/m2
02:40 5.7 °C 3.9 °C 1003.9 hPa ESE 3.2 km/h 3.2 km/h 88 % 0 mm 0 W/m2
02:45 5.7 °C 3.9 °C 1003.9 hPa ESE 1.6 km/h 32.2 km/h 88 % 0 mm 0 W/m2
02:50 5.7 °C 3.9 °C 1003.9 hPa ESE 1.6 km/h 32.2 km/h 88 % 0 mm 0 W/m2
02:55 5.7 °C 3.9 °C 1003.9 hPa ESE 3.2 km/h 32.2 km/h 88 % 0 mm 0 W/m2
03:05 5.8 °C 4.1 °C 1003.6 hPa ESE 4.8 km/h 32.2 km/h 89 % 0 mm 0 W/m2
03:10 5.8 °C 4.1 °C 1003.6 hPa East 3.2 km/h 32.2 km/h 89 % 0 mm 0 W/m2
03:15 5.8 °C 4.2 °C 1003.6 hPa ESE 3.2 km/h 32.2 km/h 89 % 0 mm 0 W/m2
03:20 5.8 °C 4.2 °C 1003.6 hPa ESE 3.2 km/h 3.2 km/h 89 % 0 mm 0 W/m2
03:25 5.8 °C 4.2 °C 1003.3 hPa ESE 1.6 km/h 6.4 km/h 89 % 0 mm 0 W/m2
03:30 5.8 °C 4.2 °C 1003.3 hPa ESE 1.6 km/h 32.2 km/h 89 % 0 mm 0 W/m2
03:40 5.8 °C 4.2 °C 1003.3 hPa SE 6.4 km/h 32.2 km/h 89 % 0 mm 0 W/m2
03:45 5.8 °C 4.2 °C 1003.3 hPa SE 6.4 km/h 32.2 km/h 89 % 0 mm 0 W/m2
03:55 5.7 °C 4 °C 1002.9 hPa SSE 6.4 km/h 32.2 km/h 89 % 0 mm 0 W/m2
04:00 5.6 °C 3.9 °C 1002.9 hPa SSE 8 km/h 32.2 km/h 89 % 0 mm 0 W/m2
04:05 5.6 °C 3.9 °C 1002.6 hPa South 8 km/h 32.2 km/h 89 % 0 mm 0 W/m2
04:15 5.5 °C 4 °C 1002.6 hPa South 9.7 km/h 9.7 km/h 90 % 0 mm 0 W/m2
04:20 5.5 °C 4 °C 1002.6 hPa South 9.7 km/h 9.7 km/h 90 % 0 mm 0 W/m2
04:25 5.4 °C 3.9 °C 1002.6 hPa SSW 8 km/h 32.2 km/h 90 % 0 mm 0 W/m2
04:30 5.4 °C 3.9 °C 1002.3 hPa SSW 6.4 km/h 32.2 km/h 90 % 0 mm 0 W/m2
04:35 5.4 °C 3.9 °C 1002.3 hPa SSW 4.8 km/h 32.2 km/h 90 % 0 mm 0 W/m2
04:45 5.3 °C 3.8 °C 1002.3 hPa SSW 3.2 km/h 32.2 km/h 90 % 0 mm 0 W/m2
04:50 5.3 °C 3.8 °C 1002.3 hPa SE 1.6 km/h 1.6 km/h 90 % 0 mm 0 W/m2
04:55 5.3 °C 3.9 °C 1001.9 hPa Calm   6.4 km/h 91 % 0 mm 0 W/m2
05:00 5.3 °C 3.9 °C 1001.9 hPa NE 1.6 km/h 1.6 km/h 91 % 0 mm 0 W/m2
05:05 5.2 °C 3.9 °C 1001.9 hPa NE 3.2 km/h 3.2 km/h 91 % 0 mm 0 W/m2
05:10 5.2 °C 3.9 °C 1001.9 hPa ENE 3.2 km/h 32.2 km/h 91 % 0 mm 0 W/m2
05:20 5.2 °C 3.9 °C 1001.9 hPa NE 3.2 km/h 3.2 km/h 91 % 0 mm 0 W/m2
05:30 5.1 °C 3.8 °C 1001.9 hPa East 1.6 km/h 32.2 km/h 91 % 0 mm 0 W/m2
05:35 5.1 °C 3.9 °C 1001.9 hPa SE 4.8 km/h 32.2 km/h 92 % 0 mm 0 W/m2
05:40 5.1 °C 3.9 °C 1001.6 hPa SSE 6.4 km/h 32.2 km/h 92 % 0 mm 0 W/m2
05:45 5.1 °C 3.9 °C 1001.6 hPa SSW 8 km/h 32.2 km/h 92 % 0 mm 0 W/m2
05:55 5.1 °C 3.9 °C 1001.6 hPa SSW 12.9 km/h 32.2 km/h 92 % 0 mm 0 W/m2
06:00 5.1 °C 3.9 °C 1001.6 hPa South 14.5 km/h 14.5 km/h 92 % 0 mm 0 W/m2
06:05 5.1 °C 3.9 °C 1001.6 hPa SSW 12.9 km/h 32.2 km/h 92 % 0 mm 0 W/m2
06:10 5.1 °C 3.9 °C 1001.2 hPa SSW 11.3 km/h 32.2 km/h 92 % 0 mm 0 W/m2
06:15 5.1 °C 3.9 °C 1001.2 hPa SSW 11.3 km/h 32.2 km/h 92 % 0 mm 0 W/m2
06:25 5.1 °C 3.9 °C 1001.2 hPa SW 8 km/h 32.2 km/h 92 % 0 mm 0 W/m2
06:30 5.1 °C 3.9 °C 1001.2 hPa SSW 8 km/h 8 km/h 92 % 0 mm 0 W/m2
06:40 5.1 °C 3.8 °C 1000.9 hPa SSW 1.6 km/h 1.6 km/h 91 % 0 mm 0 W/m2
06:45 5.1 °C 3.9 °C 1000.9 hPa Calm   3.2 km/h 92 % 0 mm 0 W/m2
06:50 5.1 °C 3.7 °C 1000.9 hPa SSE 1.6 km/h 32.2 km/h 91 % 0 mm 0 W/m2
07:00 5 °C 3.8 °C 1000.6 hPa SE 6.4 km/h 32.2 km/h 92 % 0 mm 5 W/m2
07:05 4.9 °C 3.8 °C 1000.6 hPa South 8 km/h 32.2 km/h 92 % 0 mm 7 W/m2
07:10 4.9 °C 3.8 °C 1000.9 hPa SSE 9.7 km/h 9.7 km/h 92 % 0 mm 9 W/m2
07:15 4.9 °C 3.8 °C 1000.9 hPa SSE 8 km/h 32.2 km/h 92 % 0 mm 9 W/m2
07:20 4.9 °C 3.7 °C 1000.9 hPa SE 8 km/h 32.2 km/h 92 % 0 mm 11 W/m2
07:25 4.9 °C 3.7 °C 1000.6 hPa ESE 4.8 km/h 32.2 km/h 92 % 0 mm 11 W/m2
07:35 4.8 °C 3.7 °C 1000.6 hPa SSE 3.2 km/h 32.2 km/h 92 % 0 mm 18 W/m2
07:40 4.8 °C 3.6 °C 1000.6 hPa SE 4.8 km/h 32.2 km/h 92 % 0 mm 18 W/m2
07:45 4.8 °C 3.6 °C 1000.6 hPa SE 6.4 km/h 32.2 km/h 92 % 0 mm 18 W/m2
07:50 4.8 °C 3.6 °C 1000.6 hPa SE 8 km/h 32.2 km/h 92 % 0 mm 21 W/m2
07:55 4.8 °C 3.6 °C 1000.6 hPa SE 6.4 km/h 32.2 km/h 92 % 0 mm 23 W/m2
08:05 4.7 °C 3.6 °C 1000.2 hPa ESE 4.8 km/h 8 km/h 92 % 0 mm 30 W/m2
08:10 4.7 °C 3.7 °C 1000.2 hPa East 4.8 km/h 32.2 km/h 93 % 0 mm 32 W/m2
08:20 4.6 °C 3.6 °C 1000.2 hPa East 6.4 km/h 6.4 km/h 93 % 0 mm 39 W/m2
08:25 4.6 °C 3.6 °C 1000.2 hPa ESE 4.8 km/h 32.2 km/h 93 % 0 mm 44 W/m2
08:30 4.6 °C 3.6 °C 1000.2 hPa ESE 4.8 km/h 32.2 km/h 93 % 0 mm 44 W/m2
08:40 4.7 °C 3.6 °C 1000.2 hPa SE 6.4 km/h 6.4 km/h 93 % 0 mm 51 W/m2
08:45 4.7 °C 3.6 °C 1000.2 hPa SE 6.4 km/h 32.2 km/h 93 % 0 mm 53 W/m2
08:50 4.7 °C 3.7 °C 999.9 hPa SE 6.4 km/h 32.2 km/h 93 % 0 mm 53 W/m2
08:55 4.7 °C 3.7 °C 999.9 hPa SE 4.8 km/h 32.2 km/h 93 % 0 mm 58 W/m2
09:00 4.7 °C 3.7 °C 999.9 hPa SE 4.8 km/h 4.8 km/h 93 % 0 mm 67 W/m2
09:05 4.7 °C 3.7 °C 999.5 hPa SE 3.2 km/h 32.2 km/h 93 % 0 mm 81 W/m2
09:10 4.8 °C 3.7 °C 999.5 hPa SE 1.6 km/h 32.2 km/h 93 % 0 mm 83 W/m2
09:15 4.8 °C 3.7 °C 999.5 hPa SE 3.2 km/h 32.2 km/h 93 % 0 mm 69 W/m2
09:20 4.8 °C 3.8 °C 999.5 hPa SE 4.8 km/h 32.2 km/h 93 % 0 mm 60 W/m2
09:25 4.8 °C 3.8 °C 999.5 hPa SE 6.4 km/h 32.2 km/h 93 % 0 mm 67 W/m2
09:35 4.9 °C 3.8 °C 999.2 hPa SE 3.2 km/h 32.2 km/h 93 % 0 mm 60 W/m2
09:40 4.8 °C 3.8 °C 999.2 hPa SE 6.4 km/h 32.2 km/h 93 % 0 mm 63 W/m2
09:50 4.9 °C 3.8 °C 998.9 hPa SE 8 km/h 8 km/h 93 % 0 mm 63 W/m2
09:55 4.9 °C 3.8 °C 998.9 hPa SSE 6.4 km/h 32.2 km/h 92 % 0 mm 74 W/m2
10:00 5 °C 3.8 °C 998.9 hPa SE 6.4 km/h 32.2 km/h 92 % 0 mm 98 W/m2
10:05 5 °C 3.8 °C 998.9 hPa SE 6.4 km/h 32.2 km/h 92 % 0 mm 109 W/m2
10:10 5.1 °C 4.1 °C 998.9 hPa ESE 6.4 km/h 32.2 km/h 93 % 0 mm 104 W/m2
10:20 5.3 °C 4.1 °C 998.9 hPa ESE 6.4 km/h 32.2 km/h 92 % 0 mm 95 W/m2
10:25 5.3 °C 4.1 °C 998.5 hPa ESE 6.4 km/h 32.2 km/h 92 % 0 mm 98 W/m2
10:30 5.3 °C 4.1 °C 998.5 hPa SE 9.7 km/h 9.7 km/h 92 % 0 mm 97 W/m2
10:35 5.4 °C 4.2 °C 998.5 hPa ESE 9.7 km/h 32.2 km/h 92 % 0 mm 105 W/m2
10:40 5.4 °C 4.2 °C 998.2 hPa SE 8 km/h 32.2 km/h 92 % 0 mm 113 W/m2
10:45 5.5 °C 4.3 °C 998.2 hPa ESE 9.7 km/h 32.2 km/h 92 % 0 mm 102 W/m2
10:55 5.6 °C 4.3 °C 998.2 hPa SE 9.7 km/h 32.2 km/h 92 % 0 mm 90 W/m2
11:00 5.6 °C 4.3 °C 998.2 hPa SE 11.3 km/h 11.3 km/h 92 % 0 mm 74 W/m2
11:10 5.6 °C 4.3 °C 997.9 hPa SE 11.3 km/h 11.3 km/h 92 % 0 mm 81 W/m2
11:15 5.6 °C 4.3 °C 997.9 hPa SSE 11.3 km/h 12.9 km/h 92 % 0 mm 88 W/m2
11:20 5.6 °C 4.5 °C 997.9 hPa SE 12.9 km/h 12.9 km/h 93 % 0 mm 90 W/m2
11:30 5.5 °C 4.4 °C 997.5 hPa SSE 11.3 km/h 32.2 km/h 93 % 0 mm 86 W/m2
11:35 5.5 °C 4.4 °C 997.5 hPa ESE 11.3 km/h 32.2 km/h 93 % 0 mm 74 W/m2
11:40 5.5 °C 4.4 °C 997.2 hPa SE 9.7 km/h 32.2 km/h 93 % 0 mm 69 W/m2
11:45 5.5 °C 4.6 °C 997.2 hPa SE 9.7 km/h 32.2 km/h 94 % 0 mm 83 W/m2
11:50 5.6 °C 4.7 °C 997.2 hPa ESE 9.7 km/h 9.7 km/h 94 % 0 mm 90 W/m2
12:00 5.6 °C 4.7 °C 996.8 hPa East 8 km/h 32.2 km/h 94 % 0 mm 77 W/m2
12:05 5.6 °C 4.7 °C 996.5 hPa ESE 9.7 km/h 32.2 km/h 94 % 0 mm 79 W/m2
12:10 5.6 °C 4.7 °C 996.5 hPa ESE 11.3 km/h 32.2 km/h 94 % 0 mm 83 W/m2
12:15 5.6 °C 4.7 °C 996.2 hPa East 12.9 km/h 32.2 km/h 94 % 0 mm 120 W/m2
12:20 5.6 °C 4.7 °C 996.2 hPa East 12.9 km/h 12.9 km/h 94 % 0 mm 102 W/m2
12:25 5.7 °C 4.8 °C 996.2 hPa ESE 12.9 km/h 17.7 km/h 94 % 0 mm 111 W/m2
12:35 5.7 °C 4.8 °C 995.8 hPa ESE 12.9 km/h 32.2 km/h 94 % 0 mm 102 W/m2
12:45 5.6 °C 4.7 °C 995.8 hPa ESE 14.5 km/h 14.5 km/h 94 % 0 mm 81 W/m2
12:50 5.6 °C 4.7 °C 995.5 hPa SE 12.9 km/h 32.2 km/h 94 % 0 mm 81 W/m2
12:55 5.6 °C 4.7 °C 995.5 hPa ESE 12.9 km/h 32.2 km/h 94 % 0 mm 69 W/m2
13:00 5.6 °C 4.7 °C 995.5 hPa SE 11.3 km/h 32.2 km/h 94 % 0 mm 70 W/m2
13:10 5.6 °C 4.9 °C 995.1 hPa ESE 11.3 km/h 32.2 km/h 95 % 1.27 mm 70 W/m2
13:15 5.6 °C 4.8 °C 995.1 hPa East 11.3 km/h 32.2 km/h 95 % 1.27 mm 83 W/m2
13:20 5.6 °C 4.9 °C 994.8 hPa SE 11.3 km/h 11.3 km/h 95 % 1.27 mm 76 W/m2
13:25 5.6 °C 4.9 °C 994.8 hPa ESE 11.3 km/h 32.2 km/h 95 % 1.27 mm 65 W/m2
13:30 5.6 °C 4.8 °C 994.8 hPa ESE 11.3 km/h 32.2 km/h 95 % 1.27 mm 69 W/m2
13:40 5.6 °C 4.8 °C 994.5 hPa East 11.3 km/h 11.3 km/h 95 % 1.52 mm 60 W/m2
13:45 5.6 °C 4.8 °C 994.5 hPa ESE 12.9 km/h 16.1 km/h 95 % 1.27 mm 54 W/m2
13:50 5.5 °C 4.8 °C 994.5 hPa SE 12.9 km/h 32.2 km/h 95 % 1.27 mm 56 W/m2
13:55 5.6 °C 4.8 °C 994.5 hPa ESE 11.3 km/h 32.2 km/h 95 % 1.27 mm 42 W/m2
14:05 5.6 °C 4.8 °C 994.1 hPa ESE 11.3 km/h 32.2 km/h 95 % 1.27 mm 47 W/m2
14:10 5.6 °C 4.9 °C 994.1 hPa ESE 11.3 km/h 11.3 km/h 95 % 1.02 mm 35 W/m2
14:20 5.6 °C 5 °C 993.8 hPa ESE 11.3 km/h 32.2 km/h 96 % 2.29 mm 40 W/m2
14:25 5.6 °C 5 °C 993.8 hPa ESE 9.7 km/h 32.2 km/h 96 % 2.03 mm 49 W/m2
14:30 5.6 °C 5 °C 993.8 hPa ESE 9.7 km/h 32.2 km/h 96 % 3.3 mm 39 W/m2
14:35 5.7 °C 5.1 °C 993.8 hPa ESE 9.7 km/h 32.2 km/h 96 % 2.03 mm 32 W/m2
14:40 5.6 °C 5 °C 993.5 hPa East 9.7 km/h 9.7 km/h 96 % 2.03 mm 32 W/m2
14:50 5.7 °C 5.1 °C 993.5 hPa ENE 8 km/h 32.2 km/h 96 % 1.27 mm 32 W/m2
14:55 5.6 °C 5 °C 993.5 hPa ESE 9.7 km/h 32.2 km/h 96 % 1.52 mm 28 W/m2
15:00 5.7 °C 5.1 °C 993.1 hPa East 8 km/h 8 km/h 96 % 1.52 mm 25 W/m2
15:05 5.7 °C 5.1 °C 993.1 hPa ENE 8 km/h 32.2 km/h 96 % 1.52 mm 21 W/m2
15:10 5.7 °C 5.1 °C 993.1 hPa East 8 km/h 8 km/h 96 % 1.27 mm 23 W/m2
15:20 5.7 °C 5.1 °C 993.1 hPa NE 8 km/h 32.2 km/h 96 % 1.27 mm 21 W/m2
15:25 5.7 °C 5.1 °C 993.1 hPa ESE 8 km/h 32.2 km/h 96 % 1.02 mm 25 W/m2
15:30 5.7 °C 5.1 °C 992.8 hPa East 6.4 km/h 6.4 km/h 96 % 1.02 mm 23 W/m2
15:40 5.7 °C 5.3 °C 992.8 hPa East 6.4 km/h 32.2 km/h 97 % 1.52 mm 21 W/m2
15:45 5.7 °C 5.3 °C 992.8 hPa ENE 6.4 km/h 32.2 km/h 97 % 1.52 mm 18 W/m2
15:55 5.7 °C 5.1 °C 992.4 hPa ESE 6.4 km/h 32.2 km/h 96 % 1.27 mm 21 W/m2
16:00 5.7 °C 5.1 °C 992.4 hPa East 4.8 km/h 32.2 km/h 96 % 1.27 mm 21 W/m2
16:05 5.7 °C 5.1 °C 992.4 hPa SE 4.8 km/h 32.2 km/h 96 % 1.27 mm 18 W/m2
16:10 5.7 °C 5.3 °C 992.1 hPa ENE 4.8 km/h 4.8 km/h 97 % 1.02 mm 16 W/m2
16:15 5.8 °C 5.3 °C 992.1 hPa ENE 4.8 km/h 32.2 km/h 97 % 1.02 mm 14 W/m2
16:20 5.7 °C 5.3 °C 992.1 hPa ENE 3.2 km/h 32.2 km/h 97 % 1.27 mm 14 W/m2
16:30 5.8 °C 5.3 °C 992.1 hPa East 4.8 km/h 4.8 km/h 97 % 1.27 mm 14 W/m2
16:35 5.8 °C 5.3 °C 992.1 hPa ENE 3.2 km/h 6.4 km/h 97 % 1.52 mm 12 W/m2
16:40 5.8 °C 5.3 °C 992.1 hPa ENE 3.2 km/h 3.2 km/h 97 % 1.52 mm 11 W/m2
16:45 5.8 °C 5.3 °C 991.8 hPa East 3.2 km/h 32.2 km/h 97 % 1.27 mm 12 W/m2
16:55 5.8 °C 5.4 °C 991.8 hPa ENE 4.8 km/h 32.2 km/h 97 % 1.52 mm 12 W/m2
17:00 5.8 °C 5.4 °C 991.8 hPa NE 4.8 km/h 32.2 km/h 97 % 1.52 mm 9 W/m2
17:10 5.8 °C 5.4 °C 991.4 hPa ENE 4.8 km/h 4.8 km/h 97 % 1.02 mm 11 W/m2
17:15 5.8 °C 5.4 °C 991.4 hPa NE 4.8 km/h 9.7 km/h 97 % 0 mm 9 W/m2
17:20 5.8 °C 5.4 °C 991.4 hPa NE 6.4 km/h 32.2 km/h 97 % 0 mm 5 W/m2
17:25 5.8 °C 5.4 °C 991.4 hPa ENE 6.4 km/h 32.2 km/h 97 % 0 mm 0 W/m2
17:35 5.8 °C 5.4 °C 991.1 hPa ENE 4.8 km/h 32.2 km/h 97 % 0 mm 0 W/m2
17:40 5.8 °C 5.4 °C 991.1 hPa NE 4.8 km/h 32.2 km/h 97 % 0 mm 0 W/m2
17:45 5.8 °C 5.4 °C 991.1 hPa NE 6.4 km/h 32.2 km/h 97 % 0 mm 0 W/m2
17:50 5.8 °C 5.4 °C 991.1 hPa ENE 4.8 km/h 4.8 km/h 97 % 0 mm 0 W/m2
17:55 5.8 °C 5.4 °C 991.1 hPa ENE 3.2 km/h 32.2 km/h 97 % 0 mm 0 W/m2
18:00 5.8 °C 5.4 °C 991.1 hPa NE 3.2 km/h 32.2 km/h 97 % 0 mm 0 W/m2
18:10 5.8 °C 5.4 °C 991.1 hPa NE 3.2 km/h 32.2 km/h 97 % 0 mm 0 W/m2
18:15 5.8 °C 5.4 °C 991.1 hPa ENE 3.2 km/h 32.2 km/h 97 % 0 mm 0 W/m2
18:20 5.8 °C 5.4 °C 990.7 hPa NE 3.2 km/h 32.2 km/h 97 % 0 mm 0 W/m2
18:30 5.8 °C 5.4 °C 990.7 hPa East 1.6 km/h 32.2 km/h 97 % 0 mm 0 W/m2
18:35 5.8 °C 5.4 °C 990.7 hPa East 1.6 km/h 32.2 km/h 97 % 0 mm 0 W/m2
18:45 5.8 °C 5.4 °C 990.4 hPa ENE 3.2 km/h 32.2 km/h 97 % 0 mm 0 W/m2
18:50 5.9 °C 5.4 °C 990.4 hPa NE 3.2 km/h 3.2 km/h 97 % 0 mm 0 W/m2
18:55 5.9 °C 5.4 °C 990.4 hPa NE 1.6 km/h 32.2 km/h 97 % 0 mm 0 W/m2
19:00 5.9 °C 5.4 °C 990.4 hPa Calm   32.2 km/h 97 % 0 mm 0 W/m2
19:05 5.9 °C 5.4 °C 990.4 hPa Calm   32.2 km/h 97 % 0 mm 0 W/m2
19:15 5.9 °C 5.4 °C 990.4 hPa Calm   32.2 km/h 97 % 0 mm 0 W/m2
19:20 5.9 °C 5.4 °C 990.4 hPa Calm   32.2 km/h 97 % 0 mm 0 W/m2
19:25 5.9 °C 5.5 °C 990.1 hPa Calm   32.2 km/h 97 % 0 mm 0 W/m2
19:30 5.9 °C 5.7 °C 990.1 hPa Calm   32.2 km/h 98 % 0 mm 0 W/m2
19:35 5.9 °C 5.7 °C 990.4 hPa Calm   32.2 km/h 98 % 0 mm 0 W/m2
19:40 5.9 °C 5.7 °C 990.4 hPa Calm   32.2 km/h 98 % 1.02 mm 0 W/m2
19:50 6 °C 5.7 °C 990.1 hPa Calm   32.2 km/h 98 % 1.27 mm 0 W/m2
19:55 6 °C 5.7 °C 990.1 hPa Calm   32.2 km/h 98 % 1.27 mm 0 W/m2
20:05 6 °C 5.7 °C 990.1 hPa Calm   32.2 km/h 98 % 1.27 mm 0 W/m2
20:10 6.1 °C 5.8 °C 990.1 hPa Calm   32.2 km/h 98 % 1.27 mm 0 W/m2
20:15 6.1 °C 5.8 °C 990.1 hPa Calm   32.2 km/h 98 % 1.02 mm 0 W/m2
20:25 6.1 °C 5.8 °C 989.7 hPa Calm   32.2 km/h 98 % 0 mm 0 W/m2
20:30 6.1 °C 5.8 °C 989.7 hPa Calm   32.2 km/h 98 % 0 mm 0 W/m2
20:35 6.1 °C 5.8 °C 989.7 hPa Calm   32.2 km/h 98 % 0 mm 0 W/m2
20:40 6.1 °C 5.8 °C 989.7 hPa Calm   32.2 km/h 98 % 1.02 mm 0 W/m2
20:45 6.1 °C 5.8 °C 989.7 hPa Calm   32.2 km/h 98 % 1.02 mm 0 W/m2
20:55 6.1 °C 5.8 °C 989.7 hPa Calm   32.2 km/h 98 % 0 mm 0 W/m2
21:00 6.1 °C 5.8 °C 989.4 hPa Calm   32.2 km/h 98 % 0 mm 0 W/m2
21:10 6.1 °C 5.8 °C 989.4 hPa Calm   32.2 km/h 98 % 0 mm 0 W/m2
21:15 6.1 °C 5.8 °C 989.4 hPa Calm   32.2 km/h 98 % 0 mm 0 W/m2
21:20 6.1 °C 5.8 °C 989.4 hPa Calm   32.2 km/h 98 % 0 mm 0 W/m2
21:30 6 °C 5.6 °C 989.4 hPa Calm   32.2 km/h 97 % 0 mm 0 W/m2
21:35 6 °C 5.6 °C 989.4 hPa Calm   32.2 km/h 97 % 0 mm 0 W/m2
21:40 5.9 °C 5.5 °C 989.4 hPa Calm   32.2 km/h 97 % 0 mm 0 W/m2
21:45 5.9 °C 5.5 °C 989.4 hPa Calm   32.2 km/h 97 % 0 mm 0 W/m2
21:50 5.9 °C 5.5 °C 989.1 hPa Calm   32.2 km/h 97 % 0 mm 0 W/m2
21:55 5.9 °C 5.7 °C 989.1 hPa Calm   32.2 km/h 98 % 0 mm 0 W/m2
22:05 5.9 °C 5.7 °C 989.1 hPa Calm   32.2 km/h 98 % 0 mm 0 W/m2
22:10 5.9 °C 5.7 °C 989.1 hPa Calm   32.2 km/h 98 % 0 mm 0 W/m2
22:15 5.9 °C 5.7 °C 989.1 hPa Calm   32.2 km/h 98 % 0 mm 0 W/m2
22:20 5.9 °C 5.7 °C 989.1 hPa Calm   32.2 km/h 98 % 0 mm 0 W/m2
22:30 6 °C 5.7 °C 988.7 hPa Calm   32.2 km/h 98 % 0 mm 0 W/m2
22:40 6.1 °C 5.8 °C 988.7 hPa Calm   32.2 km/h 98 % 0 mm 0 W/m2
22:45 6.1 °C 5.8 °C 988.7 hPa Calm   32.2 km/h 98 % 0 mm 0 W/m2
22:50 6.2 °C 5.9 °C 988.7 hPa Calm   32.2 km/h 98 % 0 mm 0 W/m2
23:00 6.4 °C 6.1 °C 988.7 hPa ENE 1.6 km/h 32.2 km/h 98 % 0 mm 0 W/m2
23:10 6.7 °C 6.4 °C 988.7 hPa SE 3.2 km/h 32.2 km/h 98 % 0 mm 0 W/m2
23:15 6.8 °C 6.6 °C 988.4 hPa SE 3.2 km/h 32.2 km/h 98 % 0 mm 0 W/m2
23:20 6.9 °C 6.6 °C 988.4 hPa SE 3.2 km/h 3.2 km/h 98 % 0 mm 0 W/m2
23:25 6.9 °C 6.7 °C 988.4 hPa SE 1.6 km/h 6.4 km/h 98 % 0 mm 0 W/m2
23:30 7.1 °C 6.8 °C 988.4 hPa SE 3.2 km/h 32.2 km/h 98 % 0 mm 0 W/m2
23:35 7.1 °C 6.8 °C 988.4 hPa SE 3.2 km/h 32.2 km/h 98 % 0 mm 0 W/m2
23:45 7.3 °C 7 °C 988.4 hPa SE 1.6 km/h 32.2 km/h 98 % 0 mm 0 W/m2
23:50 7.3 °C 7 °C 988.4 hPa SE 3.2 km/h 32.2 km/h 98 % 0 mm 0 W/m2
23:55 7.3 °C 7.1 °C 988.4 hPa SE 3.2 km/h 32.2 km/h 98 % 0 mm 0 W/m2
Delerius-Weather
Compliments of Weather Underground - 2 mb

Data updates at regular intervals.